createdAt,value
2022-11-16T00:00:27.142Z,100566.75
2022-11-16T00:02:53.772Z,100574.84
2022-11-16T00:05:24.211Z,100567.75
2022-11-16T00:07:53.660Z,100567.63
2022-11-16T00:10:20.340Z,100565.78
2022-11-16T00:12:47.249Z,100570.31
2022-11-16T00:15:15.425Z,100558.69
2022-11-16T00:17:42.014Z,100562.38
2022-11-16T00:20:10.036Z,100561.78
2022-11-16T00:22:36.613Z,100564.47
2022-11-16T00:25:03.394Z,100568.03
2022-11-16T00:27:30.113Z,100568.03
2022-11-16T00:29:56.690Z,100565.47
2022-11-16T00:32:24.613Z,100562.94
2022-11-16T00:34:51.291Z,100560.50
2022-11-16T00:37:17.910Z,100564.31
2022-11-16T00:39:44.517Z,100571.66
2022-11-16T00:42:11.081Z,100570.94
2022-11-16T00:44:37.752Z,100567.53
2022-11-16T00:47:04.754Z,100570.22
2022-11-16T00:49:32.781Z,100569.25
2022-11-16T00:51:59.422Z,100568.25
2022-11-16T00:54:26.118Z,100571.22
2022-11-16T00:56:52.704Z,100558.03
2022-11-16T00:59:19.315Z,100559.19
2022-11-16T01:01:46.024Z,100556.75
2022-11-16T01:04:12.589Z,100556.16
2022-11-16T01:06:40.593Z,100561.22
2022-11-16T01:09:07.222Z,100559.81
2022-11-16T01:11:33.893Z,100553.69
2022-11-16T01:14:02.058Z,100559.06
2022-11-16T01:16:28.801Z,100549.44
2022-11-16T01:18:55.583Z,100559.34
2022-11-16T01:21:23.226Z,100558.50
2022-11-16T01:23:51.726Z,100563.00
2022-11-16T01:26:18.581Z,100566.66
2022-11-16T01:28:45.298Z,100575.75
2022-11-16T01:31:12.054Z,100559.75
2022-11-16T01:33:39.073Z,100565.00
2022-11-16T01:36:09.874Z,100548.03
2022-11-16T01:38:36.757Z,100549.00
2022-11-16T01:41:05.004Z,100540.09
2022-11-16T01:43:50.293Z,100531.03
2022-11-16T01:46:16.958Z,100531.16
2022-11-16T01:48:43.930Z,100520.69
2022-11-16T01:51:11.050Z,100522.53
2022-11-16T01:53:37.804Z,100510.06
2022-11-16T01:56:06.417Z,100506.69
2022-11-16T01:58:33.175Z,100499.88
2022-11-16T02:01:00.203Z,100499.03
2022-11-16T02:03:27.013Z,100493.78
2022-11-16T02:06:14.957Z,100495.75
2022-11-16T02:08:49.146Z,100494.91
2022-11-16T02:11:50.089Z,100493.06
2022-11-16T02:14:33.005Z,100494.06
2022-11-16T02:17:05.837Z,100483.44
2022-11-16T02:20:02.500Z,100476.63
2022-11-16T02:22:42.704Z,100473.25
2022-11-16T02:25:17.238Z,100483.13
2022-11-16T02:28:16.508Z,100469.81
2022-11-16T02:30:49.443Z,100475.19
2022-11-16T02:33:20.332Z,100466.28
2022-11-16T02:35:50.018Z,100484.09
2022-11-16T02:38:23.337Z,100472.63
2022-11-16T02:40:53.601Z,100467.25
2022-11-16T02:43:24.669Z,100472.63
2022-11-16T02:45:57.836Z,100467.03
2022-11-16T02:48:29.297Z,100463.31
2022-11-16T02:50:56.149Z,100464.91
2022-11-16T02:53:24.346Z,100465.03
2022-11-16T02:55:51.383Z,100453.59
2022-11-16T02:58:21.178Z,100449.19
2022-11-16T03:00:57.487Z,100448.47
2022-11-16T03:03:32.318Z,100449.47
2022-11-16T03:06:03.219Z,100446.91
2022-11-16T03:08:33.436Z,100446.34
2022-11-16T03:11:04.734Z,100449.25
2022-11-16T03:13:34.163Z,100451.94
2022-11-16T03:16:07.470Z,100455.38
2022-11-16T03:18:34.799Z,100457.31
2022-11-16T03:21:09.465Z,100459.03
2022-11-16T03:23:36.370Z,100464.41
2022-11-16T03:26:07.093Z,100459.03
2022-11-16T03:28:36.976Z,100466.09
2022-11-16T03:31:11.181Z,100462.44
2022-11-16T03:33:42.933Z,100457.06
2022-11-16T03:36:15.156Z,100453.66
2022-11-16T03:38:44.143Z,100438.41
2022-11-16T03:41:12.083Z,100440.09
2022-11-16T03:43:41.598Z,100442.66
2022-11-16T03:46:10.122Z,100438.97
2022-11-16T03:48:38.765Z,100438.97
2022-11-16T03:51:07.993Z,100426.28
2022-11-16T03:53:34.630Z,100421.59
2022-11-16T03:56:01.363Z,100419.66
2022-11-16T03:58:28.278Z,100424.03
2022-11-16T04:00:55.127Z,100415.25
2022-11-16T04:03:23.170Z,100418.66
2022-11-16T04:05:50.012Z,100421.19
2022-11-16T04:08:17.644Z,100424.63
2022-11-16T04:10:44.539Z,100424.50
2022-11-16T04:13:13.354Z,100419.25
2022-11-16T04:15:40.039Z,100421.19
2022-11-16T04:18:09.800Z,100426.56
2022-11-16T04:20:37.831Z,100424.03
2022-11-16T04:23:07.848Z,100422.34
2022-11-16T04:25:38.097Z,100427.72
2022-11-16T04:28:05.607Z,100425.16
2022-11-16T04:30:32.458Z,100414.41
2022-11-16T04:32:59.094Z,100416.22
2022-11-16T04:35:25.910Z,100412.56
2022-11-16T04:37:56.682Z,100408.91
2022-11-16T04:40:25.899Z,100407.94
2022-11-16T04:42:52.758Z,100409.59
2022-11-16T04:45:19.535Z,100412.28
2022-11-16T04:47:48.381Z,100413.03
2022-11-16T04:50:15.135Z,100406.78
2022-11-16T04:52:41.724Z,100413.88
2022-11-16T04:55:10.325Z,100415.59
2022-11-16T04:57:36.907Z,100407.38
2022-11-16T05:00:04.223Z,100413.47
2022-11-16T05:02:30.866Z,100407.13
2022-11-16T05:04:57.584Z,100411.47
2022-11-16T05:07:24.268Z,100408.78
2022-11-16T05:09:50.958Z,100419.28
2022-11-16T05:12:21.079Z,100410.22
2022-11-16T05:14:47.829Z,100410.22
2022-11-16T05:17:16.212Z,100407.53
2022-11-16T05:19:42.897Z,100417.31
2022-11-16T05:22:09.545Z,100420.84
2022-11-16T05:24:36.259Z,100430.44
2022-11-16T05:27:04.779Z,100418.72
2022-11-16T05:29:33.261Z,100423.97
2022-11-16T05:32:00.202Z,100426.38
2022-11-16T05:34:26.822Z,100428.94
2022-11-16T05:36:53.582Z,100432.31
2022-11-16T05:39:20.486Z,100431.34
2022-11-16T05:41:47.532Z,100429.50
2022-11-16T05:44:14.833Z,100433.75
2022-11-16T05:46:43.818Z,100436.31
2022-11-16T05:49:10.937Z,100433.50
2022-11-16T05:51:39.316Z,100436.75
2022-11-16T05:54:06.601Z,100443.69
2022-11-16T05:56:34.786Z,100443.44
2022-11-16T05:59:01.441Z,100443.44
2022-11-16T06:01:28.205Z,100445.84
2022-11-16T06:03:58.597Z,100442.84
2022-11-16T06:06:25.168Z,100440.91
2022-11-16T06:08:51.834Z,100442.59
2022-11-16T06:11:18.520Z,100443.44
2022-11-16T06:13:45.092Z,100437.78
2022-11-16T06:16:12.529Z,100438.50
2022-11-16T06:18:41.043Z,100435.69
2022-11-16T06:21:09.980Z,100434.53
2022-11-16T06:23:36.638Z,100438.06
2022-11-16T06:26:03.736Z,100439.78
2022-11-16T06:28:30.534Z,100440.50
2022-11-16T06:30:57.245Z,100447.56
2022-11-16T06:33:24.382Z,100452.81
2022-11-16T06:35:50.991Z,100450.13
2022-11-16T06:38:19.267Z,100444.63
2022-11-16T06:40:46.206Z,100452.69
2022-11-16T06:43:12.822Z,100448.00
2022-11-16T06:45:39.537Z,100449.72
2022-11-16T06:48:06.266Z,100451.41
2022-11-16T06:50:32.955Z,100454.81
2022-11-16T06:52:59.667Z,100453.81
2022-11-16T06:55:28.018Z,100446.59
2022-11-16T06:57:54.609Z,100442.94
2022-11-16T07:00:21.467Z,100440.09
2022-11-16T07:02:48.131Z,100440.09
2022-11-16T07:05:14.909Z,100436.41
2022-11-16T07:07:41.481Z,100443.50
2022-11-16T07:10:09.105Z,100446.88
2022-11-16T07:12:37.106Z,100447.59
2022-11-16T07:15:04.113Z,100455.53
2022-11-16T07:17:31.136Z,100449.16
2022-11-16T07:19:57.722Z,100457.22
2022-11-16T07:22:24.377Z,100451.84
2022-11-16T07:24:50.956Z,100453.69
2022-11-16T07:27:17.526Z,100459.78
2022-11-16T07:29:45.589Z,100456.97
2022-11-16T07:32:12.273Z,100466.72
2022-11-16T07:34:38.830Z,100463.03
2022-11-16T07:37:05.543Z,100464.88
2022-11-16T07:39:32.112Z,100466.72
2022-11-16T07:41:58.805Z,100463.19
2022-11-16T07:44:25.353Z,100458.81
2022-11-16T07:46:53.346Z,100467.72
2022-11-16T07:49:20.074Z,100470.53
2022-11-16T07:51:46.740Z,100473.22
2022-11-16T07:54:13.780Z,100469.56
2022-11-16T07:56:40.951Z,100465.03
2022-11-16T07:59:07.686Z,100480.03
2022-11-16T08:01:34.977Z,100475.78
2022-11-16T08:04:02.992Z,100464.03
2022-11-16T08:06:31.127Z,100462.19
2022-11-16T08:08:59.083Z,100465.72
2022-11-16T08:11:25.760Z,100461.34
2022-11-16T08:13:52.393Z,100464.03
2022-11-16T08:16:20.793Z,100464.19
2022-11-16T08:18:47.814Z,100457.09
2022-11-16T08:21:17.482Z,100455.25
2022-11-16T08:23:44.709Z,100449.88
2022-11-16T08:26:13.661Z,100448.19
2022-11-16T08:28:40.878Z,100440.97
2022-11-16T08:31:08.918Z,100442.91
2022-11-16T08:33:35.491Z,100441.25
2022-11-16T08:36:03.824Z,100428.78
2022-11-16T08:38:31.970Z,100433.31
2022-11-16T08:40:59.093Z,100427.06
2022-11-16T08:43:25.772Z,100429.63
2022-11-16T08:45:52.704Z,100443.94
2022-11-16T08:48:19.753Z,100429.63
2022-11-16T08:51:15.512Z,100428.78
2022-11-16T08:53:34.380Z,100421.56
2022-11-16T08:56:04.842Z,100410.66
2022-11-16T08:58:31.667Z,100404.28
2022-11-16T09:00:58.587Z,100401.59
2022-11-16T09:03:25.219Z,100400.75
2022-11-16T09:05:52.355Z,100398.78
2022-11-16T09:08:18.965Z,100396.94
2022-11-16T09:10:46.935Z,100393.25
2022-11-16T09:13:13.636Z,100394.81
2022-11-16T09:15:40.242Z,100399.22
2022-11-16T09:18:06.901Z,100399.03
2022-11-16T09:20:33.508Z,100397.06
2022-11-16T09:23:00.055Z,100402.47
2022-11-16T09:25:26.623Z,100396.94
2022-11-16T09:27:55.836Z,100397.63
2022-11-16T09:30:22.581Z,100405.56
2022-11-16T09:32:49.133Z,100400.88
2022-11-16T09:35:15.944Z,100399.03
2022-11-16T09:37:42.586Z,100389.28
2022-11-16T09:40:10.071Z,100397.94
2022-11-16T09:42:48.651Z,100391.41
2022-11-16T09:45:24.747Z,100390.41
2022-11-16T09:47:55.163Z,100386.88
2022-11-16T09:50:31.612Z,100385.16
2022-11-16T09:53:04.972Z,100378.09
2022-11-16T09:55:36.982Z,100380.09
2022-11-16T09:58:13.656Z,100363.09
2022-11-16T10:00:47.316Z,100378.38
2022-11-16T10:03:15.180Z,100366.94
2022-11-16T10:05:48.693Z,100379.53
2022-11-16T10:08:20.095Z,100376.97
2022-11-16T10:10:54.692Z,100377.69
2022-11-16T10:13:35.293Z,100383.19
2022-11-16T10:16:12.809Z,100376.84
2022-11-16T10:18:51.389Z,100376.84
2022-11-16T10:21:33.287Z,100375.00
2022-11-16T10:24:31.633Z,100369.63
2022-11-16T10:27:11.830Z,100365.91
2022-11-16T10:29:48.622Z,100365.78
2022-11-16T10:32:22.654Z,100372.00
2022-11-16T10:34:52.396Z,100369.44
2022-11-16T10:37:19.531Z,100360.53
2022-11-16T10:39:49.186Z,100371.28
2022-11-16T10:42:19.629Z,100376.66
2022-11-16T10:44:50.401Z,100369.63
2022-11-16T10:47:23.530Z,100373.00
2022-11-16T10:49:56.227Z,100381.91
2022-11-16T10:52:24.239Z,100373.00
2022-11-16T10:54:51.211Z,100376.66
2022-11-16T10:57:18.136Z,100366.94
2022-11-16T10:59:46.470Z,100372.31
2022-11-16T11:02:31.236Z,100373.97
2022-11-16T11:05:16.648Z,100364.06
2022-11-16T11:07:49.146Z,100355.16
2022-11-16T11:10:30.006Z,100358.84
2022-11-16T11:13:20.697Z,100349.78
2022-11-16T11:15:47.516Z,100352.47
2022-11-16T11:18:25.338Z,100353.47
2022-11-16T11:21:06.532Z,100347.25
2022-11-16T11:23:41.668Z,100348.09
2022-11-16T11:26:22.479Z,100348.78
2022-11-16T11:28:49.901Z,100338.75
2022-11-16T11:31:20.786Z,100347.63
2022-11-16T11:33:52.067Z,100351.19
2022-11-16T11:36:21.133Z,100351.19
2022-11-16T11:39:00.229Z,100352.03
2022-11-16T11:41:32.721Z,100358.13
2022-11-16T11:44:03.313Z,100355.44
2022-11-16T11:47:18.198Z,100356.13
2022-11-16T11:49:33.652Z,100357.16
2022-11-16T11:52:05.063Z,100358.81
2022-11-16T11:54:35.736Z,100363.34
2022-11-16T11:57:04.445Z,100359.66
2022-11-16T11:59:31.096Z,100356.97
2022-11-16T12:02:18.697Z,100354.28
2022-11-16T12:05:15.702Z,100357.16
2022-11-16T12:08:13.231Z,100349.19
2022-11-16T12:10:47.582Z,100349.34
2022-11-16T12:13:50.196Z,100350.06
2022-11-16T12:16:26.788Z,100353.59
2022-11-16T12:19:12.323Z,100350.91
2022-11-16T12:21:52.029Z,100352.88
2022-11-16T12:24:35.434Z,100342.13
2022-11-16T12:27:14.766Z,100350.19
2022-11-16T12:29:48.519Z,100351.91
2022-11-16T12:32:32.339Z,100347.50
2022-11-16T12:35:14.823Z,100353.59
2022-11-16T12:37:48.707Z,100351.91
2022-11-16T12:40:36.294Z,100352.88
2022-11-16T12:43:15.490Z,100352.19
2022-11-16T12:46:02.199Z,100351.19
2022-11-16T12:48:46.239Z,100348.50
2022-11-16T12:51:27.458Z,100354.59
2022-11-16T12:54:15.541Z,100355.56
2022-11-16T12:56:52.106Z,100348.34
2022-11-16T12:59:35.305Z,100351.91
2022-11-16T13:02:09.434Z,100349.19
2022-11-16T13:04:40.800Z,100350.06
2022-11-16T13:07:12.351Z,100338.44
2022-11-16T13:09:46.258Z,100336.75
2022-11-16T13:12:16.638Z,100337.59
2022-11-16T13:14:46.913Z,100343.69
2022-11-16T13:17:19.440Z,100342.66
2022-11-16T13:20:08.979Z,100333.75
2022-11-16T13:22:40.774Z,100335.63
2022-11-16T13:25:18.238Z,100334.75
2022-11-16T13:27:49.810Z,100335.63
2022-11-16T13:30:19.098Z,100332.75
2022-11-16T13:33:03.070Z,100328.22
2022-11-16T13:35:30.118Z,100329.94
2022-11-16T13:37:56.914Z,100332.47
2022-11-16T13:40:30.184Z,100328.78
2022-11-16T13:43:18.609Z,100330.50
2022-11-16T13:45:54.282Z,100331.34
2022-11-16T13:48:24.274Z,100328.53
2022-11-16T13:50:53.926Z,100332.88
2022-11-16T13:56:21.857Z,100330.19
2022-11-16T13:58:53.219Z,100336.28
2022-11-16T14:01:19.857Z,100334.28
2022-11-16T14:03:48.830Z,100334.28
2022-11-16T14:06:53.738Z,100333.47
2022-11-16T14:09:44.720Z,100330.59
2022-11-16T14:12:55.710Z,100324.25
2022-11-16T14:15:28.760Z,100325.94
2022-11-16T14:17:58.907Z,100326.63
2022-11-16T14:20:54.636Z,100324.94
2022-11-16T14:23:50.619Z,100330.31
2022-11-16T14:26:23.053Z,100329.31
2022-11-16T14:29:23.980Z,100329.31
2022-11-16T14:31:54.311Z,100333.84
2022-11-16T14:34:24.967Z,100330.31
2022-11-16T14:36:52.606Z,100331.03
2022-11-16T14:39:30.265Z,100333.84
2022-11-16T14:42:00.572Z,100328.47
2022-11-16T14:44:31.994Z,100325.09
2022-11-16T14:47:02.595Z,100323.38
2022-11-16T14:49:33.343Z,100321.69
2022-11-16T14:52:02.965Z,100315.63
2022-11-16T14:54:34.885Z,100321.25
2022-11-16T14:57:03.728Z,100325.09
2022-11-16T14:59:31.524Z,100316.31
2022-11-16T15:02:04.793Z,100320.03
2022-11-16T15:04:31.717Z,100320.28
2022-11-16T15:07:02.359Z,100318.88
2022-11-16T15:09:31.099Z,100315.50
2022-11-16T15:12:01.152Z,100324.56
2022-11-16T15:14:31.827Z,100323.72
2022-11-16T15:16:59.853Z,100314.97
2022-11-16T15:19:30.768Z,100324.00
2022-11-16T15:21:59.477Z,100316.94
2022-11-16T15:24:32.043Z,100313.38
2022-11-16T15:27:10.470Z,100315.22
2022-11-16T15:29:37.342Z,100316.38
2022-11-16T15:32:04.810Z,100313.81
2022-11-16T15:34:32.928Z,100313.81
2022-11-16T15:36:59.594Z,100300.53
2022-11-16T15:39:32.755Z,100309.59
2022-11-16T15:42:03.720Z,100307.19
2022-11-16T15:44:31.923Z,100307.19
2022-11-16T15:46:59.357Z,100303.66
2022-11-16T15:49:29.665Z,100313.56
2022-11-16T15:51:59.249Z,100312.72
2022-11-16T15:54:27.658Z,100305.63
2022-11-16T15:56:56.027Z,100304.78
2022-11-16T15:59:27.399Z,100301.09
2022-11-16T16:01:54.669Z,100305.63
2022-11-16T16:04:22.165Z,100295.00
2022-11-16T16:06:50.478Z,100297.97
2022-11-16T16:09:25.291Z,100299.13
2022-11-16T16:11:52.286Z,100299.97
2022-11-16T16:14:23.841Z,100307.31
2022-11-16T16:16:51.352Z,100303.66
2022-11-16T16:19:38.576Z,100302.81
2022-11-16T16:22:12.119Z,100298.28
2022-11-16T16:24:42.748Z,100300.97
2022-11-16T16:27:12.339Z,100299.81
2022-11-16T16:29:39.231Z,100305.06
2022-11-16T16:32:07.853Z,100302.38
2022-11-16T16:34:37.863Z,100301.38
2022-11-16T16:37:10.585Z,100306.78
2022-11-16T16:39:37.371Z,100303.22
2022-11-16T16:42:06.073Z,100304.78
2022-11-16T16:44:32.705Z,100305.63
2022-11-16T16:46:59.400Z,100307.47
2022-11-16T16:49:26.100Z,100297.69
2022-11-16T16:51:52.782Z,100297.69
2022-11-16T16:54:19.428Z,100303.06
2022-11-16T16:56:46.146Z,100305.75
2022-11-16T16:59:14.189Z,100305.75
2022-11-16T17:01:41.240Z,100306.59
2022-11-16T17:04:07.877Z,100311.13
2022-11-16T17:06:34.853Z,100312.16
2022-11-16T17:09:01.616Z,100307.63
2022-11-16T17:11:28.445Z,100305.91
2022-11-16T17:13:55.205Z,100311.28
2022-11-16T17:16:23.199Z,100306.78
2022-11-16T17:18:54.506Z,100299.56
2022-11-16T17:21:21.300Z,100300.38
2022-11-16T17:23:48.002Z,100297.69
2022-11-16T17:26:14.640Z,100301.09
2022-11-16T17:28:41.386Z,100309.16
2022-11-16T17:31:10.026Z,100310.88
2022-11-16T17:33:39.563Z,100307.19
2022-11-16T17:36:08.286Z,100314.97
2022-11-16T17:38:35.329Z,100320.34
2022-11-16T17:41:05.913Z,100323.16
2022-11-16T17:43:33.098Z,100311.56
2022-11-16T17:46:05.367Z,100306.34
2022-11-16T17:48:32.013Z,100316.09
2022-11-16T17:51:00.173Z,100315.09
2022-11-16T17:53:32.486Z,100317.78
2022-11-16T17:55:59.652Z,100317.94
2022-11-16T17:58:27.973Z,100321.47
2022-11-16T18:00:54.995Z,100322.31
2022-11-16T18:03:21.922Z,100321.47
2022-11-16T18:05:48.608Z,100325.00
2022-11-16T18:08:16.592Z,100312.72
2022-11-16T18:10:43.282Z,100322.47
2022-11-16T18:13:09.929Z,100324.31
2022-11-16T18:15:42.195Z,100317.22
2022-11-16T18:18:09.383Z,100318.09
2022-11-16T18:20:37.254Z,100322.63
2022-11-16T18:23:04.115Z,100322.63
2022-11-16T18:25:34.003Z,100316.25
2022-11-16T18:28:00.620Z,100319.91
2022-11-16T18:30:27.255Z,100306.47
2022-11-16T18:32:54.321Z,100314.69
2022-11-16T18:35:20.920Z,100314.69
2022-11-16T18:37:47.786Z,100315.53
2022-11-16T18:40:14.645Z,100316.38
2022-11-16T18:42:42.745Z,100315.53
2022-11-16T18:45:09.963Z,100305.06
2022-11-16T18:47:36.525Z,100304.34
2022-11-16T18:50:03.752Z,100308.06
2022-11-16T18:52:30.319Z,100312.72
2022-11-16T18:54:56.913Z,100311.84
2022-11-16T18:57:23.541Z,100310.03
2022-11-16T18:59:51.571Z,100312.72
2022-11-16T19:02:18.352Z,100323.34
2022-11-16T19:04:44.937Z,100318.09
2022-11-16T19:07:11.691Z,100307.31
2022-11-16T19:09:38.442Z,100315.41
2022-11-16T19:12:05.296Z,100303.66
2022-11-16T19:14:32.069Z,100306.47
2022-11-16T19:17:00.017Z,100305.78
2022-11-16T19:19:26.824Z,100308.47
2022-11-16T19:21:53.433Z,100303.09
2022-11-16T19:24:20.083Z,100316.69
2022-11-16T19:26:46.852Z,100319.38
2022-11-16T19:29:13.539Z,100316.69
2022-11-16T19:31:40.257Z,100322.91
2022-11-16T19:34:11.692Z,100314.97
2022-11-16T19:36:38.413Z,100311.59
2022-11-16T19:39:05.820Z,100312.56
2022-11-16T19:41:32.597Z,100318.94
2022-11-16T19:44:00.289Z,100313.56
2022-11-16T19:46:28.717Z,100320.09
2022-11-16T19:48:56.253Z,100329.13
2022-11-16T19:51:25.859Z,100332.69
2022-11-16T19:53:53.186Z,100328.28
2022-11-16T19:56:21.237Z,100340.88
2022-11-16T19:58:48.012Z,100333.66
2022-11-16T20:01:16.538Z,100330.13
2022-11-16T20:03:43.651Z,100343.72
2022-11-16T20:06:12.358Z,100338.47
2022-11-16T20:08:41.686Z,100342.88
2022-11-16T20:11:12.947Z,100339.31
2022-11-16T20:13:39.888Z,100342.00
2022-11-16T20:16:08.147Z,100337.63
2022-11-16T20:18:34.823Z,100348.38
2022-11-16T20:21:01.724Z,100343.97
2022-11-16T20:23:28.681Z,100334.22
2022-11-16T20:25:56.913Z,100338.75
2022-11-16T20:28:23.536Z,100349.34
2022-11-16T20:30:50.117Z,100345.81
2022-11-16T20:33:16.911Z,100352.91
2022-11-16T20:35:43.536Z,100350.34
2022-11-16T20:38:10.091Z,100347.66
2022-11-16T20:40:36.899Z,100348.66
2022-11-16T20:43:04.857Z,100350.63
2022-11-16T20:45:33.231Z,100355.31
2022-11-16T20:47:59.956Z,100349.22
2022-11-16T20:50:26.520Z,100344.81
2022-11-16T20:52:53.104Z,100344.97
2022-11-16T20:55:19.742Z,100347.94
2022-11-16T20:57:46.579Z,100358.84
2022-11-16T21:00:16.392Z,100355.59
2022-11-16T21:02:43.002Z,100349.34
2022-11-16T21:05:09.637Z,100347.53
2022-11-16T21:07:36.271Z,100352.19
2022-11-16T21:10:03.196Z,100363.91
2022-11-16T21:12:29.948Z,100364.06
2022-11-16T21:14:56.567Z,100356.25
2022-11-16T21:17:24.536Z,100363.63
2022-11-16T21:20:20.011Z,100353.84
2022-11-16T21:22:37.794Z,100353.72
2022-11-16T21:25:04.833Z,100338.59
2022-11-16T21:27:31.451Z,100350.31
2022-11-16T21:29:58.161Z,100334.19
2022-11-16T21:32:26.221Z,100353.00
2022-11-16T21:34:52.859Z,100342.38
2022-11-16T21:37:19.680Z,100343.53
2022-11-16T21:39:46.266Z,100344.50
2022-11-16T21:42:12.848Z,100348.03
2022-11-16T21:44:39.692Z,100352.72
2022-11-16T21:47:06.237Z,100344.66
2022-11-16T21:49:34.258Z,100345.66
2022-11-16T21:52:00.800Z,100351.03
2022-11-16T21:54:27.521Z,100340.41
2022-11-16T21:56:54.102Z,100352.00
2022-11-16T21:59:20.743Z,100354.69
2022-11-16T22:01:47.585Z,100348.63
2022-11-16T22:04:14.232Z,100348.63
2022-11-16T22:06:42.345Z,100351.31
2022-11-16T22:09:08.934Z,100349.59
2022-11-16T22:11:35.844Z,100348.03
2022-11-16T22:14:02.393Z,100348.19
2022-11-16T22:16:29.265Z,100353.69
2022-11-16T22:18:55.894Z,100345.75
2022-11-16T22:21:22.522Z,100349.44
2022-11-16T22:23:50.609Z,100352.13
2022-11-16T22:26:17.668Z,100354.09
2022-11-16T22:28:44.258Z,100349.84
2022-11-16T22:31:12.040Z,100352.53
2022-11-16T22:33:39.307Z,100354.38
2022-11-16T22:36:06.644Z,100349.28
2022-11-16T22:38:33.627Z,100343.19
2022-11-16T22:41:01.594Z,100335.13
2022-11-16T22:43:29.853Z,100331.72
2022-11-16T22:45:57.665Z,100332.97
2022-11-16T22:48:28.794Z,100334.97
2022-11-16T22:51:01.889Z,100341.31
2022-11-16T22:53:28.595Z,100338.63
2022-11-16T22:55:55.215Z,100334.13
2022-11-16T22:58:23.481Z,100335.94
2022-11-16T23:00:51.623Z,100327.91
2022-11-16T23:03:18.265Z,100331.84
2022-11-16T23:05:44.889Z,100332.81
2022-11-16T23:08:11.456Z,100329.28
2022-11-16T23:10:38.068Z,100330.41
2022-11-16T23:13:04.675Z,100328.88
2022-11-16T23:15:32.624Z,100335.22
2022-11-16T23:17:59.198Z,100318.53
2022-11-16T23:20:25.828Z,100315.97
2022-11-16T23:22:52.470Z,100313.41
2022-11-16T23:25:19.181Z,100310.03
2022-11-16T23:27:55.408Z,100307.47
2022-11-16T23:30:22.365Z,100307.03
2022-11-16T23:32:50.693Z,100299.22
2022-11-16T23:35:18.004Z,100295.69
2022-11-16T23:37:52.366Z,100298.66
2022-11-16T23:40:19.018Z,100298.91
2022-11-16T23:42:45.669Z,100297.22
2022-11-16T23:45:12.390Z,100298.19
2022-11-16T23:47:39.024Z,100299.47
2022-11-16T23:50:07.694Z,100291.69
2022-11-16T23:52:34.271Z,100284.63
2022-11-16T23:55:00.881Z,100282.91
2022-11-16T23:57:27.446Z,100281.94
2022-11-16T23:59:54.065Z,100281.09
